Time;durP1;ratioP1;P1;durP2;ratioP2;P2;SDS_P1;SDS_P2;PMS_P1;PMS_P2;Temp;Humidity;BMP_temperature;BMP_pressure;BME280_temperature;BME280_humidity;BME280_pressure;Samples;Min_cycle;Max_cycle;Signal;HPM_P1;HPM_P2
2023/12/23 18:02:30;;;;;;;6.43;0.93;;;;;;;17.47;54.51;100849.34;5058995;27;97071;-75
2023/12/23 18:04:55;;;;;;;3.60;0.93;;;;;;;17.72;54.37;100845.41;5063042;27;97648;-74
2023/12/23 18:07:21;;;;;;;3.10;1.02;;;;;;;18.04;53.56;100840.50;5063686;27;125594;-75
2023/12/23 18:09:46;;;;;;;3.20;1.02;;;;;;;18.32;52.70;100842.59;5052910;27;105760;-74
2023/12/23 18:12:12;;;;;;;3.38;1.10;;;;;;;18.57;52.41;100840.34;5055490;27;109092;-74
2023/12/23 18:26:50;;;;;;;4.35;1.10;;;;;;;19.27;50.50;100867.91;5013890;28;97056;-71
2023/12/23 18:29:16;;;;;;;4.22;1.30;;;;;;;19.67;49.34;100864.34;4986256;28;96881;-71
2023/12/23 18:31:42;;;;;;;4.75;1.13;;;;;;;20.06;48.05;100864.25;4942420;28;98128;-71
2023/12/23 18:34:07;;;;;;;5.60;1.45;;;;;;;20.35;47.41;100859.00;4950160;28;97211;-71
2023/12/23 18:36:33;;;;;;;3.90;1.10;;;;;;;20.59;46.70;100853.94;4943557;28;105688;-71
2023/12/23 18:38:58;;;;;;;2.78;0.90;;;;;;;20.79;46.25;100849.88;4951327;28;96825;-71
2023/12/23 18:41:24;;;;;;;4.20;1.10;;;;;;;20.92;45.56;100848.59;4933061;28;97703;-71
2023/12/23 18:43:49;;;;;;;4.97;1.25;;;;;;;21.03;45.35;100854.44;4947427;28;126433;-71
2023/12/23 18:46:17;;;;;;;3.10;0.88;;;;;;;21.13;45.28;100854.16;4949739;28;97731;-71
2023/12/23 18:48:43;;;;;;;5.82;1.55;;;;;;;21.20;45.02;100858.34;4947675;28;96899;-71
2023/12/23 18:51:11;;;;;;;3.63;1.48;;;;;;;21.25;44.71;100870.56;4958672;28;97508;-72
2023/12/23 18:53:37;;;;;;;4.60;1.33;;;;;;;21.30;44.41;100865.06;4943905;28;109670;-71
2023/12/23 18:56:02;;;;;;;3.85;1.10;;;;;;;21.36;44.13;100870.22;4945472;28;96855;-71
2023/12/23 18:58:28;;;;;;;6.40;2.20;;;;;;;21.38;44.35;100868.38;4942778;28;97335;-71
2023/12/23 19:00:53;;;;;;;4.82;1.30;;;;;;;21.42;44.36;100879.75;4947283;28;98944;-70
2023/12/23 19:03:20;;;;;;;2.78;1.15;;;;;;;21.44;43.89;100876.16;4951906;28;97239;-71
2023/12/23 19:05:45;;;;;;;4.22;1.20;;;;;;;21.46;43.82;100886.72;4950156;28;97336;-71
2023/12/23 19:08:11;;;;;;;3.72;1.20;;;;;;;21.47;43.92;100886.69;4947933;28;96892;-71
2023/12/23 19:10:42;;;;;;;3.35;1.00;;;;;;;21.51;43.70;100868.88;4947748;28;97431;-72
2023/12/23 19:13:08;;;;;;;3.88;1.08;;;;;;;21.52;43.89;100856.50;4950451;28;97378;-71
2023/12/23 19:15:33;;;;;;;3.90;1.17;;;;;;;21.54;43.83;100863.47;4947957;28;97061;-71
2023/12/23 19:17:58;;;;;;;2.75;0.90;;;;;;;21.55;43.66;100869.63;4949448;28;97603;-71
2023/12/23 19:20:25;;;;;;;3.65;1.55;;;;;;;21.57;43.63;100870.44;4947601;28;98406;-72
2023/12/23 19:22:51;;;;;;;4.72;1.00;;;;;;;21.57;43.56;100862.47;4946918;28;98425;-71
2023/12/23 19:25:19;;;;;;;3.95;1.05;;;;;;;21.58;43.38;100861.56;4950544;28;97046;-71
2023/12/23 19:27:45;;;;;;;4.78;1.13;;;;;;;21.59;43.19;100864.19;4950528;28;97280;-71
2023/12/23 19:30:11;;;;;;;4.22;0.95;;;;;;;21.59;43.70;100856.22;4951361;28;97501;-71
2023/12/23 19:32:40;;;;;;;5.07;1.77;;;;;;;21.62;43.43;100863.19;4950783;28;99187;-71
2023/12/23 19:35:07;;;;;;;2.72;1.58;;;;;;;21.62;43.37;100857.91;4938768;28;97068;-71
2023/12/23 19:37:32;;;;;;;5.03;1.00;;;;;;;21.62;43.21;100865.84;4939325;28;96865;-71
2023/12/23 19:39:58;;;;;;;4.55;1.40;;;;;;;21.62;43.45;100861.44;4932734;28;97385;-72
2023/12/23 19:42:23;;;;;;;3.28;0.93;;;;;;;21.63;43.45;100860.50;4929609;28;113972;-71
2023/12/23 19:44:49;;;;;;;3.05;1.20;;;;;;;21.63;43.16;100865.81;4934582;28;97311;-71
2023/12/23 19:47:14;;;;;;;3.63;0.98;;;;;;;21.63;43.00;100860.50;4933480;28;97018;-71
2023/12/23 19:49:40;;;;;;;2.85;0.90;;;;;;;21.64;43.08;100864.00;4932481;28;111764;-71
2023/12/23 19:52:05;;;;;;;4.50;1.40;;;;;;;21.62;43.05;100868.50;4934389;28;97166;-71
2023/12/23 19:54:31;;;;;;;4.00;0.95;;;;;;;21.60;42.80;100859.75;4942706;28;97034;-71
2023/12/23 19:56:56;;;;;;;3.60;1.63;;;;;;;21.63;43.08;100862.31;4933794;28;96809;-71
2023/12/23 19:59:22;;;;;;;4.18;1.77;;;;;;;21.61;42.99;100864.13;4932403;28;109664;-71
2023/12/23 20:01:47;;;;;;;2.60;0.98;;;;;;;21.62;42.64;100865.84;4944944;28;97765;-71
2023/12/23 20:04:14;;;;;;;4.38;1.30;;;;;;;21.63;42.78;100870.25;4940449;28;96972;-71
2023/12/23 20:06:39;;;;;;;2.67;1.05;;;;;;;21.62;43.00;100866.75;4930816;28;96742;-71
2023/12/23 20:09:05;;;;;;;3.45;0.98;;;;;;;21.64;43.08;100861.38;4937292;28;98599;-71
2023/12/23 20:11:30;;;;;;;3.60;1.70;;;;;;;21.64;42.80;100856.06;4934705;28;97225;-71
2023/12/23 20:13:57;;;;;;;3.55;1.20;;;;;;;21.63;42.51;100862.31;4924992;28;97422;-71
2023/12/23 20:16:24;;;;;;;6.45;1.25;;;;;;;21.64;42.64;100861.38;4933827;28;97017;-71
2023/12/23 20:18:50;;;;;;;3.13;1.25;;;;;;;21.63;42.80;100864.94;4942888;28;97590;-71
2023/12/23 20:21:16;;;;;;;3.40;1.20;;;;;;;21.62;42.89;100869.41;4931534;28;99598;-72
2023/12/23 20:23:43;;;;;;;3.35;1.00;;;;;;;21.58;42.45;100869.53;4928714;28;96920;-72
2023/12/23 20:26:09;;;;;;;3.28;0.90;;;;;;;21.57;42.83;100859.81;4935437;28;96795;-71
2023/12/23 20:28:34;;;;;;;3.33;1.05;;;;;;;21.56;42.88;100860.78;4929775;28;97560;-71
2023/12/23 20:31:00;;;;;;;4.00;1.85;;;;;;;21.56;42.76;100863.41;4930637;28;98173;-71
2023/12/23 20:33:25;;;;;;;3.17;1.65;;;;;;;21.54;42.63;100855.50;4935621;28;96783;-71
2023/12/23 20:35:52;;;;;;;3.30;1.17;;;;;;;21.52;42.37;100861.78;4936610;28;96920;-71
2023/12/23 20:38:17;;;;;;;2.72;1.05;;;;;;;21.53;42.85;100859.06;4936648;28;97273;-71
2023/12/23 20:40:43;;;;;;;4.30;1.10;;;;;;;21.53;42.64;100852.91;4928569;28;97256;-71
2023/12/23 20:43:09;;;;;;;3.33;1.60;;;;;;;21.52;42.77;100845.88;4934339;28;104716;-71
2023/12/23 20:45:34;;;;;;;2.97;1.00;;;;;;;21.50;42.72;100848.56;4929421;28;97917;-71
2023/12/23 20:48:00;;;;;;;4.03;1.13;;;;;;;21.51;42.32;100858.25;4934879;28;104727;-71
2023/12/23 20:50:29;;;;;;;3.15;1.00;;;;;;;21.49;42.57;100857.44;4968032;28;100022;-71
2023/12/23 20:52:54;;;;;;;3.22;1.25;;;;;;;21.48;42.60;100856.59;4926568;28;111641;-71
2023/12/23 20:55:20;;;;;;;2.60;1.00;;;;;;;21.49;42.58;100844.16;4933013;28;96822;-71
2023/12/23 20:57:45;;;;;;;3.15;1.02;;;;;;;21.48;42.48;100842.44;4926335;28;110866;-71
2023/12/23 21:00:12;;;;;;;3.67;1.10;;;;;;;21.46;42.60;100837.19;4932627;28;97159;-71
2023/12/23 21:02:37;;;;;;;4.72;1.10;;;;;;;21.46;42.63;100833.66;4932744;28;96731;-71
2023/12/23 21:05:03;;;;;;;2.53;0.80;;;;;;;21.45;42.62;100839.84;4935368;28;97299;-72
2023/12/23 21:07:28;;;;;;;5.43;1.30;;;;;;;21.44;42.24;100848.72;4930439;28;97562;-71
2023/12/23 21:09:55;;;;;;;4.28;1.67;;;;;;;21.44;42.17;100846.97;4932276;28;113774;-71
2023/12/23 21:12:23;;;;;;;4.35;1.83;;;;;;;21.45;42.30;100845.16;4928889;28;97750;-71
2023/12/23 21:14:49;;;;;;;2.90;0.90;;;;;;;21.45;42.23;100839.84;4936869;28;98372;-72
2023/12/23 21:17:15;;;;;;;4.43;1.02;;;;;;;21.41;42.43;100836.44;4936738;28;97550;-72
2023/12/23 21:19:40;;;;;;;3.75;1.60;;;;;;;21.42;42.04;100848.78;4929364;28;97121;-71
2023/12/23 21:22:06;;;;;;;2.97;0.90;;;;;;;21.43;42.41;100847.88;4936476;28;96868;-71
2023/12/23 21:24:31;;;;;;;4.35;1.10;;;;;;;21.41;42.08;100836.44;4934597;28;97884;-71
2023/12/23 21:26:57;;;;;;;3.65;1.45;;;;;;;21.41;42.07;100831.13;4927294;28;97525;-71
2023/12/23 21:29:23;;;;;;;3.45;1.10;;;;;;;21.42;42.11;100819.59;4933388;28;97373;-71
2023/12/23 21:31:48;;;;;;;3.47;1.00;;;;;;;21.40;42.22;100831.19;4932046;28;96913;-72
2023/12/23 21:34:16;;;;;;;4.05;1.13;;;;;;;21.41;41.85;100827.63;4937144;28;96843;-71
2023/12/23 21:36:41;;;;;;;2.80;1.42;;;;;;;21.40;41.86;100826.72;4923717;28;97551;-71
2023/12/23 21:39:07;;;;;;;4.30;1.83;;;;;;;21.40;42.24;100818.78;4933180;28;97151;-71
2023/12/23 21:41:33;;;;;;;2.92;1.05;;;;;;;21.40;42.06;100826.72;4930507;28;97031;-71
2023/12/23 21:43:59;;;;;;;3.67;0.85;;;;;;;21.40;42.19;100823.22;4934857;28;96930;-71
2023/12/23 21:46:27;;;;;;;4.30;1.30;;;;;;;21.38;41.82;100825.91;4923113;28;98073;-71
2023/12/23 21:48:53;;;;;;;2.65;0.95;;;;;;;21.38;42.06;100823.25;4925672;28;97134;-71
2023/12/23 21:51:19;;;;;;;4.97;1.25;;;;;;;21.42;41.88;100826.69;4937228;28;96703;-71
2023/12/23 21:53:45;;;;;;;3.90;2.00;;;;;;;21.41;42.27;100824.97;4937053;28;96929;-71
2023/12/23 21:56:11;;;;;;;4.53;1.10;;;;;;;21.40;41.80;100831.19;4936468;28;97763;-71
2023/12/23 21:58:37;;;;;;;3.92;1.08;;;;;;;21.39;41.80;100832.09;4935079;28;97506;-71
2023/12/23 22:01:04;;;;;;;2.78;0.95;;;;;;;21.39;42.03;100832.09;4931916;28;97252;-71
2023/12/23 22:03:30;;;;;;;2.75;1.10;;;;;;;21.39;42.18;100818.81;4935792;28;96712;-71
2023/12/23 22:05:56;;;;;;;4.88;1.13;;;;;;;21.38;41.97;100815.31;4935238;28;123834;-71
2023/12/23 22:08:21;;;;;;;2.47;0.93;;;;;;;21.39;41.95;100813.50;4930776;28;97469;-71
2023/12/23 22:10:47;;;;;;;3.75;1.10;;;;;;;21.40;41.80;100791.38;4931398;28;96716;-71
2023/12/23 22:13:13;;;;;;;3.58;1.17;;;;;;;21.40;41.98;100794.88;4934918;28;97367;-71
2023/12/23 22:15:39;;;;;;;3.72;1.42;;;;;;;21.42;42.11;100785.09;4931790;28;97725;-71
2023/12/23 22:18:05;;;;;;;4.15;1.20;;;;;;;21.42;41.78;100769.16;4936383;28;97282;-70
2023/12/23 22:20:31;;;;;;;4.25;1.90;;;;;;;21.45;41.83;100765.56;4934558;28;96712;-71
2023/12/23 22:22:57;;;;;;;2.60;1.00;;;;;;;21.49;41.96;100767.22;4935657;28;98413;-71
2023/12/23 22:25:23;;;;;;;4.85;1.25;;;;;;;21.51;42.05;100772.47;4932911;28;97849;-71
2023/12/23 22:27:49;;;;;;;3.30;1.05;;;;;;;21.52;41.86;100763.59;4934765;28;97266;-72
2023/12/23 22:30:15;;;;;;;3.58;1.13;;;;;;;21.54;42.07;100754.66;4935703;28;97279;-71
2023/12/23 22:32:40;;;;;;;3.78;0.98;;;;;;;21.55;42.20;100758.16;4924686;28;97312;-71
2023/12/23 22:35:08;;;;;;;3.33;1.33;;;;;;;21.56;41.75;100763.44;4926802;28;100161;-71
2023/12/23 22:37:34;;;;;;;2.65;1.20;;;;;;;21.56;41.86;100760.78;4930082;28;97255;-71
2023/12/23 22:39:59;;;;;;;3.53;1.45;;;;;;;21.58;42.32;100760.72;4932649;28;96771;-71
2023/12/23 22:42:26;;;;;;;3.20;0.90;;;;;;;21.60;41.83;100761.53;4934595;28;96913;-71
2023/12/23 22:44:52;;;;;;;3.47;2.00;;;;;;;21.58;41.93;100764.25;4924114;28;98224;-71
2023/12/23 22:47:18;;;;;;;2.88;1.08;;;;;;;21.60;42.19;100764.19;4934857;28;96691;-70
2023/12/23 22:49:45;;;;;;;3.55;0.88;;;;;;;21.60;41.86;100748.25;4932720;28;99640;-70
2023/12/23 22:52:11;;;;;;;2.92;0.90;;;;;;;21.58;41.95;100742.16;4930167;28;97487;-71
2023/12/23 22:54:37;;;;;;;2.75;1.75;;;;;;;21.55;42.33;100735.19;4931891;28;97718;-72
2023/12/23 22:57:03;;;;;;;2.90;0.98;;;;;;;21.53;42.12;100742.28;4934920;28;97438;-73
2023/12/23 22:59:30;;;;;;;3.75;1.27;;;;;;;21.54;42.50;100738.72;4932750;28;96882;-73
2023/12/23 23:01:55;;;;;;;3.50;1.10;;;;;;;21.55;42.29;100742.25;4924582;28;97151;-73
2023/12/23 23:04:21;;;;;;;2.05;0.80;;;;;;;21.54;42.37;100740.53;4934379;28;97508;-73
2023/12/23 23:06:47;;;;;;;2.25;1.40;;;;;;;21.52;42.50;100751.19;4934591;28;97591;-73
2023/12/23 23:09:15;;;;;;;3.13;0.93;;;;;;;21.54;42.35;100743.19;4931142;28;97111;-73
2023/12/23 23:11:41;;;;;;;6.68;0.98;;;;;;;21.51;42.39;100744.13;4935022;28;96730;-72
2023/12/23 23:14:07;;;;;;;2.97;1.00;;;;;;;21.49;42.11;100751.28;4931729;28;97540;-72
2023/12/23 23:16:32;;;;;;;10.05;0.98;;;;;;;21.51;42.26;100752.09;4937410;28;98690;-72
2023/12/23 23:18:58;;;;;;;1.83;0.70;;;;;;;21.50;42.34;100745.09;4938426;28;97535;-71
2023/12/23 23:21:23;;;;;;;3.58;0.90;;;;;;;21.48;42.45;100737.16;4932016;28;96801;-72
2023/12/23 23:23:49;;;;;;;2.90;1.63;;;;;;;21.51;42.69;100743.28;4934815;28;101760;-72
2023/12/23 23:26:16;;;;;;;3.05;1.75;;;;;;;21.49;42.58;100746.84;4933918;28;97371;-72
2023/12/23 23:28:41;;;;;;;2.10;0.80;;;;;;;21.48;42.38;100747.78;4929563;28;96989;-73
2023/12/23 23:31:08;;;;;;;2.53;0.60;;;;;;;21.49;42.23;100746.84;4935509;28;97035;-71
2023/12/23 23:33:33;;;;;;;3.42;0.80;;;;;;;21.49;42.49;100748.63;4931526;28;97681;-71
2023/12/23 23:35:59;;;;;;;2.03;0.90;;;;;;;21.51;42.40;100738.84;4932619;28;98043;-71
2023/12/23 23:38:24;;;;;;;3.22;0.77;;;;;;;21.51;42.45;100738.84;4921248;28;96829;-71
2023/12/23 23:40:50;;;;;;;2.53;0.95;;;;;;;21.49;42.27;100749.50;4929858;28;96725;-71
2023/12/23 23:43:16;;;;;;;2.42;1.00;;;;;;;21.48;42.28;100749.56;4932109;28;97374;-71
2023/12/23 23:45:42;;;;;;;3.53;1.10;;;;;;;21.48;42.29;100754.88;4937288;28;97555;-72
2023/12/23 23:48:07;;;;;;;2.92;1.00;;;;;;;21.48;42.44;100749.56;4932257;28;96680;-71
2023/12/23 23:50:33;;;;;;;4.75;0.90;;;;;;;21.48;42.47;100749.56;4937262;28;97633;-71
2023/12/23 23:53:00;;;;;;;2.63;0.80;;;;;;;21.49;42.73;100756.59;4936136;28;97372;-72
2023/12/23 23:55:26;;;;;;;3.20;0.90;;;;;;;21.49;42.53;100757.47;4926699;28;97299;-72
2023/12/23 23:57:51;;;;;;;3.45;0.70;;;;;;;21.48;42.37;100758.41;4938692;28;97159;-73
